Terminal Aerodrome Forecast
Issued by NWS Albany, NY

Home | Current Version | Previous Version | Text Only | Print | Product List | Glossary On
Versions: 1 2 3 4 5 6 7 8 9 10 11 12 13
000
FTUS41 KALY 221600 AAA
TAFPOU
TAF AMD
KPOU 221602Z 2216/2312 VRB06KT P6SM SKC
     FM230200 17003KT P6SM BKN060
     FM231000 VRB02KT 2SM BR SKC=

USA.gov is the U.S. government's official web portal to all federal, state and local government web resources and services.